Time;durP1;ratioP1;P1;durP2;ratioP2;P2;SDS_P1;SDS_P2;PMS_P1;PMS_P2;Temp;Humidity;BMP_temperature;BMP_pressure;BME280_temperature;BME280_humidity;BME280_pressure;Samples;Min_cycle;Max_cycle;Signal;HPM_P1;HPM_P2
2024/04/13 00:02:16;;;;;;;11.32;6.63;;;;;;;8.92;100.00;97913.72;5288504;26;20015;-67
2024/04/13 00:04:42;;;;;;;10.93;6.78;;;;;;;8.94;100.00;97911.47;5360315;26;20085;-67
2024/04/13 00:07:07;;;;;;;12.05;6.57;;;;;;;8.90;100.00;97901.53;5352712;26;20228;-67
2024/04/13 00:09:33;;;;;;;13.05;7.35;;;;;;;8.79;100.00;97901.88;5362338;26;20000;-67
2024/04/13 00:11:58;;;;;;;9.85;6.53;;;;;;;8.73;100.00;97897.72;5363887;26;19996;-67
2024/04/13 00:14:23;;;;;;;9.98;7.15;;;;;;;8.70;100.00;97901.09;5352973;26;19996;-67
2024/04/13 00:16:49;;;;;;;14.07;6.93;;;;;;;8.68;100.00;97900.63;5376498;26;20072;-67
2024/04/13 00:19:15;;;;;;;12.85;6.43;;;;;;;8.62;100.00;97899.19;5350445;26;20064;-67
2024/04/13 00:21:42;;;;;;;13.55;6.68;;;;;;;8.50;100.00;97893.56;5359451;26;20067;-67
2024/04/13 00:24:11;;;;;;;10.32;6.57;;;;;;;8.36;100.00;97891.81;5354738;26;19996;-72
2024/04/13 00:26:36;;;;;;;11.67;6.70;;;;;;;8.24;100.00;97886.97;5360507;26;20351;-67
2024/04/13 00:29:05;;;;;;;18.08;7.90;;;;;;;8.19;100.00;97881.72;5358127;26;20308;-67
2024/04/13 00:31:31;;;;;;;12.60;7.35;;;;;;;8.21;100.00;97878.63;5376667;26;20007;-66
2024/04/13 00:33:57;;;;;;;9.90;6.60;;;;;;;8.06;100.00;97879.94;5358259;26;20001;-66
2024/04/13 00:36:22;;;;;;;10.48;7.10;;;;;;;8.00;100.00;97879.28;5380544;26;20672;-67
2024/04/13 00:38:47;;;;;;;10.65;6.50;;;;;;;7.99;100.00;97882.34;5361917;26;20000;-67
2024/04/13 00:41:13;;;;;;;12.50;6.78;;;;;;;8.17;100.00;97877.69;5357852;26;20008;-67
2024/04/13 00:43:39;;;;;;;12.02;6.68;;;;;;;8.13;100.00;97876.72;5374994;26;20676;-67
2024/04/13 00:46:08;;;;;;;12.27;6.85;;;;;;;8.16;100.00;97870.63;5352540;26;20000;-67
2024/04/13 00:48:36;;;;;;;10.27;7.13;;;;;;;8.17;100.00;97870.28;5359179;26;20000;-66
2024/04/13 00:51:04;;;;;;;11.85;6.75;;;;;;;8.18;100.00;97871.13;5348273;26;20018;-67
2024/04/13 00:53:34;;;;;;;11.98;6.70;;;;;;;8.16;100.00;97871.44;5350893;26;20036;-67
2024/04/13 00:56:01;;;;;;;;;;;;;;;8.15;100.00;97860.84;5386689;26;20595;-67
2024/04/13 00:58:30;;;;;;;9.43;6.40;;;;;;;8.20;100.00;97863.41;5325631;26;19969;-66
2024/04/13 01:00:58;;;;;;;11.88;7.18;;;;;;;8.13;100.00;97863.88;5363579;26;20015;-70
2024/04/13 01:03:24;;;;;;;12.18;6.47;;;;;;;8.14;100.00;97868.22;5355578;26;20545;-67
2024/04/13 01:05:50;;;;;;;13.70;6.93;;;;;;;8.13;100.00;97871.28;5367850;26;20401;-66
2024/04/13 01:08:16;;;;;;;10.02;6.85;;;;;;;8.13;100.00;97865.81;5350738;26;20019;-66
2024/04/13 01:10:42;;;;;;;10.30;7.18;;;;;;;8.13;100.00;97869.34;5360921;26;20000;-65
2024/04/13 01:13:09;;;;;;;9.35;6.88;;;;;;;8.18;100.00;97863.72;5367714;26;19997;-65
2024/04/13 01:15:36;;;;;;;11.52;6.75;;;;;;;8.03;100.00;97873.19;5360616;26;20001;-66
2024/04/13 01:18:12;;;;;;;8.40;6.65;;;;;;;7.93;100.00;97875.44;5365117;26;20011;-65
2024/04/13 01:20:39;;;;;;;10.73;6.53;;;;;;;7.83;100.00;97877.38;5306695;26;20380;-67
2024/04/13 01:23:06;;;;;;;10.20;7.18;;;;;;;7.83;100.00;97869.19;5384158;26;20005;-67
2024/04/13 01:25:33;;;;;;;9.80;7.00;;;;;;;7.70;100.00;97867.38;5302099;26;20073;-68
2024/04/13 01:27:59;;;;;;;16.63;7.65;;;;;;;7.45;100.00;97872.50;5364863;26;19996;-68
2024/04/13 01:30:24;;;;;;;13.32;8.00;;;;;;;7.23;100.00;97867.94;5363505;26;20007;-68
2024/04/13 01:32:51;;;;;;;14.25;7.05;;;;;;;7.13;100.00;97864.69;5341659;26;20000;-68
2024/04/13 01:35:19;;;;;;;14.68;7.60;;;;;;;7.05;100.00;97858.91;5353718;26;20272;-67
2024/04/13 01:37:44;;;;;;;12.88;7.50;;;;;;;7.15;100.00;97862.44;5360217;26;20081;-67
2024/04/13 01:40:10;;;;;;;10.23;6.55;;;;;;;7.33;100.00;97861.41;5363307;26;20000;-67
2024/04/13 01:42:37;;;;;;;11.80;7.03;;;;;;;7.48;100.00;97860.16;5363923;26;20168;-66
2024/04/13 01:45:03;;;;;;;14.07;7.35;;;;;;;7.54;100.00;97860.78;5355552;26;20001;-66
2024/04/13 01:47:29;;;;;;;9.25;6.90;;;;;;;7.53;100.00;97854.56;5375342;26;20000;-66
2024/04/13 01:49:55;;;;;;;8.75;6.40;;;;;;;7.54;100.00;97847.97;5363955;26;20015;-66
2024/04/13 01:52:20;;;;;;;10.70;6.82;;;;;;;7.50;100.00;97852.44;5353888;26;20483;-69
2024/04/13 01:54:46;;;;;;;10.95;6.85;;;;;;;7.47;100.00;97853.06;5343343;26;19999;-67
2024/04/13 01:57:13;;;;;;;8.68;6.82;;;;;;;7.49;100.00;97852.75;5350346;26;20001;-66
2024/04/13 01:59:41;;;;;;;10.07;6.88;;;;;;;7.39;100.00;97851.94;5301049;26;20048;-67
2024/04/13 02:02:07;;;;;;;11.75;6.50;;;;;;;7.38;100.00;97854.97;5353765;26;20378;-68
2024/04/13 02:04:33;;;;;;;11.32;6.40;;;;;;;7.38;100.00;97853.09;5330566;26;20367;-68
2024/04/13 02:06:59;;;;;;;8.75;6.22;;;;;;;7.41;100.00;97862.53;5360472;26;19996;-68
2024/04/13 02:09:25;;;;;;;10.05;6.88;;;;;;;7.49;100.00;97863.66;5352414;26;20139;-68
2024/04/13 02:11:51;;;;;;;9.80;7.15;;;;;;;7.54;100.00;97872.50;5330174;26;20011;-67
2024/04/13 02:14:17;;;;;;;12.77;6.88;;;;;;;7.53;100.00;97867.38;5332057;26;20011;-67
2024/04/13 02:16:42;;;;;;;9.40;6.38;;;;;;;7.52;100.00;97865.75;5332445;26;20015;-67
2024/04/13 02:19:08;;;;;;;11.45;6.90;;;;;;;7.43;100.00;97871.19;5337315;26;20011;-68
2024/04/13 02:21:33;;;;;;;11.75;7.45;;;;;;;7.29;100.00;97868.59;5361965;26;20028;-67
2024/04/13 02:23:58;;;;;;;11.75;6.88;;;;;;;7.25;100.00;97870.34;5362841;26;20471;-68
2024/04/13 02:26:24;;;;;;;11.38;6.38;;;;;;;7.22;100.00;97871.78;5356984;26;20000;-68
2024/04/13 02:28:50;;;;;;;11.32;6.72;;;;;;;7.31;100.00;97873.72;5333444;26;20008;-68
2024/04/13 02:31:17;;;;;;;9.55;6.00;;;;;;;7.26;100.00;97871.97;5365074;26;19999;-67
2024/04/13 02:33:42;;;;;;;8.85;6.35;;;;;;;7.24;100.00;97869.56;5367320;26;19997;-67
2024/04/13 02:36:08;;;;;;;13.75;6.55;;;;;;;7.20;100.00;97875.94;5354799;26;20071;-70
2024/04/13 02:38:33;;;;;;;9.90;6.45;;;;;;;7.15;100.00;97876.06;5361685;26;20070;-67
2024/04/13 02:41:00;;;;;;;8.77;6.00;;;;;;;7.07;100.00;97874.94;5365078;26;19996;-65
2024/04/13 02:43:26;;;;;;;15.65;6.45;;;;;;;7.09;100.00;97869.97;5346451;26;20419;-66
2024/04/13 02:45:51;;;;;;;13.88;6.63;;;;;;;7.04;100.00;97873.66;5361378;26;19996;-67
2024/04/13 02:48:18;;;;;;;12.57;6.45;;;;;;;7.03;100.00;97869.31;5352632;26;20442;-66
2024/04/13 02:50:44;;;;;;;11.13;6.07;;;;;;;7.07;100.00;97873.00;5332574;26;20445;-69
2024/04/13 02:53:09;;;;;;;8.93;6.97;;;;;;;7.16;100.00;97874.97;5338623;26;20001;-65
2024/04/13 02:55:35;;;;;;;9.80;6.82;;;;;;;7.11;100.00;97875.91;5362558;26;20024;-69
2024/04/13 02:58:00;;;;;;;10.95;6.40;;;;;;;6.99;100.00;97875.72;5362404;26;19996;-68
2024/04/13 03:00:25;;;;;;;11.35;5.63;;;;;;;6.95;100.00;97880.16;5348445;26;20078;-67
2024/04/13 03:02:51;;;;;;;9.90;6.68;;;;;;;6.93;100.00;97872.31;5359490;26;20010;-68
2024/04/13 03:05:16;;;;;;;10.32;6.95;;;;;;;6.90;100.00;97872.94;5368601;26;20015;-68
2024/04/13 03:07:42;;;;;;;12.25;6.45;;;;;;;6.90;100.00;97864.78;5375607;26;20000;-67
2024/04/13 03:10:07;;;;;;;12.02;6.68;;;;;;;6.87;100.00;97868.13;5354733;26;20012;-67
2024/04/13 03:12:32;;;;;;;9.82;5.60;;;;;;;6.82;100.00;97870.97;5330137;26;20110;-66
2024/04/13 03:15:00;;;;;;;11.75;6.85;;;;;;;6.78;100.00;97870.81;5360950;26;20004;-67
2024/04/13 03:17:26;;;;;;;11.48;6.22;;;;;;;6.82;100.00;97881.88;5353688;26;20440;-67
2024/04/13 03:19:51;;;;;;;11.25;6.57;;;;;;;6.83;100.00;97880.78;5360453;26;20015;-67
2024/04/13 03:22:18;;;;;;;11.88;6.72;;;;;;;6.76;100.00;97897.53;5354836;26;20015;-68
2024/04/13 03:24:44;;;;;;;12.75;6.60;;;;;;;6.74;100.00;97883.44;5363876;26;20008;-68
2024/04/13 03:27:10;;;;;;;9.98;7.15;;;;;;;6.78;100.00;97878.97;5342520;26;20453;-67
2024/04/13 03:29:35;;;;;;;9.38;6.35;;;;;;;6.75;100.00;97881.50;5361215;26;20001;-68
2024/04/13 03:32:01;;;;;;;9.82;6.93;;;;;;;6.73;100.00;97879.09;5353503;26;20051;-64
2024/04/13 03:34:27;;;;;;;9.90;6.70;;;;;;;6.70;100.00;97883.25;5366863;26;20032;-66
2024/04/13 03:36:53;;;;;;;10.77;6.68;;;;;;;6.72;100.00;97882.94;5359520;26;19996;-68
2024/04/13 03:39:21;;;;;;;13.25;6.60;;;;;;;6.76;100.00;97880.41;5342427;26;20436;-68
2024/04/13 03:41:47;;;;;;;10.18;6.97;;;;;;;6.73;100.00;97883.75;5361336;26;20514;-66
2024/04/13 03:44:13;;;;;;;10.32;6.53;;;;;;;6.76;100.00;97886.66;5354720;26;19996;-67
2024/04/13 03:46:38;;;;;;;7.85;6.03;;;;;;;6.68;100.00;97884.66;5381065;26;20000;-68
2024/04/13 03:49:04;;;;;;;12.13;5.57;;;;;;;6.50;100.00;97894.69;5356827;26;20001;-65
2024/04/13 03:51:29;;;;;;;15.50;6.32;;;;;;;6.37;100.00;97893.63;5368799;26;20000;-68
2024/04/13 03:53:55;;;;;;;7.90;5.75;;;;;;;6.22;100.00;97894.78;5329931;26;20449;-67
2024/04/13 03:56:20;;;;;;;8.68;6.32;;;;;;;6.18;100.00;97893.81;5350978;26;20012;-68
2024/04/13 03:58:47;;;;;;;9.85;6.10;;;;;;;6.28;100.00;97892.75;5357469;26;20096;-67
2024/04/13 04:01:12;;;;;;;9.48;6.43;;;;;;;6.34;100.00;97896.97;5343040;26;20043;-68
2024/04/13 04:03:38;;;;;;;9.07;6.40;;;;;;;6.34;100.00;97894.25;5345149;26;20752;-70
2024/04/13 04:06:04;;;;;;;13.52;6.18;;;;;;;6.31;100.00;97900.31;5352474;26;19997;-67
2024/04/13 04:08:30;;;;;;;10.55;6.78;;;;;;;6.30;100.00;97901.41;5362098;26;20078;-68
2024/04/13 04:10:55;;;;;;;9.80;6.10;;;;;;;6.23;100.00;97907.28;5359445;26;20012;-68
2024/04/13 04:13:23;;;;;;;9.93;6.25;;;;;;;5.87;100.00;97899.09;5352629;26;20016;-68
2024/04/13 04:15:49;;;;;;;9.10;5.82;;;;;;;5.87;100.00;97902.66;5361716;26;20011;-68
2024/04/13 04:18:15;;;;;;;12.05;6.22;;;;;;;5.93;100.00;97903.34;5352931;26;20015;-68
2024/04/13 04:20:41;;;;;;;11.35;6.55;;;;;;;5.83;100.00;97898.91;5359065;26;20019;-67
2024/04/13 04:23:06;;;;;;;11.93;7.65;;;;;;;5.81;100.00;97901.13;5351415;26;20011;-67
2024/04/13 04:25:32;;;;;;;11.68;6.68;;;;;;;5.98;100.00;97897.00;5358695;26;19997;-69
2024/04/13 04:27:58;;;;;;;11.73;7.22;;;;;;;5.89;100.00;97891.47;5356296;26;20000;-69
2024/04/13 04:30:23;;;;;;;16.17;7.50;;;;;;;5.74;100.00;97884.44;5353227;26;20379;-67
2024/04/13 04:32:48;;;;;;;12.90;7.22;;;;;;;5.62;100.00;97884.97;5361228;26;20036;-68
2024/04/13 04:35:14;;;;;;;11.00;7.65;;;;;;;5.45;100.00;97892.94;5351505;26;20000;-67
2024/04/13 04:37:40;;;;;;;13.60;7.43;;;;;;;5.36;100.00;97895.56;5359255;26;20000;-67
2024/04/13 04:40:09;;;;;;;12.15;7.53;;;;;;;5.24;100.00;97901.53;5351485;26;20018;-67
2024/04/13 04:42:35;;;;;;;9.50;7.30;;;;;;;5.20;100.00;97899.72;5373505;26;20004;-68
2024/04/13 04:45:01;;;;;;;13.65;6.75;;;;;;;5.46;100.00;97910.88;5360317;26;20138;-67
2024/04/13 04:47:27;;;;;;;12.52;6.97;;;;;;;5.74;100.00;97900.75;5357300;26;20114;-67
2024/04/13 04:49:52;;;;;;;10.80;6.93;;;;;;;5.84;100.00;97900.53;5360746;26;20463;-68
2024/04/13 04:52:18;;;;;;;8.75;6.88;;;;;;;5.96;100.00;97897.31;5353286;26;20374;-66
2024/04/13 04:54:44;;;;;;;10.00;6.85;;;;;;;6.06;100.00;97899.00;5372189;26;20018;-69
2024/04/13 04:57:09;;;;;;;12.90;6.32;;;;;;;6.19;100.00;97911.72;5353679;26;19996;-68
2024/04/13 04:59:35;;;;;;;9.43;6.00;;;;;;;6.35;100.00;97908.66;5361614;26;20024;-69
2024/04/13 05:02:01;;;;;;;9.02;6.40;;;;;;;6.50;100.00;97913.75;5373254;26;19999;-68
2024/04/13 05:04:27;;;;;;;10.93;6.38;;;;;;;6.67;100.00;97919.28;5352675;26;20001;-69
2024/04/13 05:06:53;;;;;;;10.30;6.40;;;;;;;6.84;100.00;97915.03;5359498;26;20041;-68
2024/04/13 05:09:19;;;;;;;8.13;5.78;;;;;;;6.99;100.00;97911.94;5351223;26;20027;-66
2024/04/13 05:11:44;;;;;;;8.30;5.80;;;;;;;7.13;100.00;97908.28;5372874;26;20045;-66
2024/04/13 05:14:10;;;;;;;11.85;5.80;;;;;;;7.52;100.00;97914.84;5352679;26;20016;-67
2024/04/13 05:16:39;;;;;;;8.70;6.07;;;;;;;8.05;100.00;97927.47;5329505;26;19997;-67
2024/04/13 05:19:04;;;;;;;10.75;5.70;;;;;;;8.64;100.00;97924.22;5352390;26;20012;-68
2024/04/13 05:21:30;;;;;;;9.90;5.18;;;;;;;9.33;100.00;97927.91;5360593;26;20011;-68
2024/04/13 05:23:55;;;;;;;8.98;4.90;;;;;;;10.13;100.00;97918.91;5359223;26;19996;-68
2024/04/13 05:26:21;;;;;;;8.93;5.40;;;;;;;10.42;100.00;97925.47;5321085;26;20506;-66
2024/04/13 05:28:47;;;;;;;7.32;4.80;;;;;;;10.27;100.00;97930.38;5352475;26;20353;-68
2024/04/13 05:31:12;;;;;;;8.38;5.07;;;;;;;10.83;100.00;97929.28;5348578;26;20007;-66
2024/04/13 05:33:38;;;;;;;9.02;4.95;;;;;;;11.24;100.00;97928.31;5345502;26;20405;-67
2024/04/13 05:36:04;;;;;;;9.48;4.80;;;;;;;11.39;100.00;97929.59;5350677;26;20445;-67
2024/04/13 05:38:30;;;;;;;9.63;4.93;;;;;;;11.91;100.00;97936.38;5374665;26;20011;-67
2024/04/13 05:40:56;;;;;;;9.60;4.97;;;;;;;12.54;100.00;97935.06;5365117;26;20073;-67
2024/04/13 05:43:21;;;;;;;8.88;5.28;;;;;;;12.87;100.00;97934.00;5364546;26;20490;-68
2024/04/13 05:45:47;;;;;;;9.73;5.32;;;;;;;13.21;100.00;97943.53;5360440;26;20015;-68
2024/04/13 05:48:12;;;;;;;11.27;6.40;;;;;;;12.81;100.00;97942.50;5380788;26;20458;-68
2024/04/13 05:50:38;;;;;;;9.73;5.00;;;;;;;12.52;100.00;97940.13;5358912;26;20045;-67
2024/04/13 05:53:04;;;;;;;8.32;4.70;;;;;;;13.31;100.00;97945.81;5346821;26;20012;-67
2024/04/13 05:55:30;;;;;;;10.15;4.60;;;;;;;14.95;100.00;97940.78;5362889;26;20000;-67
2024/04/13 05:57:56;;;;;;;9.65;4.40;;;;;;;15.46;94.07;97943.28;5363936;26;20011;-67
2024/04/13 06:00:22;;;;;;;8.25;3.53;;;;;;;16.60;85.14;97949.72;5357283;26;20039;-66
2024/04/13 06:02:48;;;;;;;6.57;3.97;;;;;;;17.78;77.86;97952.09;5361942;26;20000;-67
2024/04/13 06:05:14;;;;;;;6.30;3.90;;;;;;;18.41;66.07;97954.94;5356003;26;20387;-67
2024/04/13 06:07:39;;;;;;;9.65;5.00;;;;;;;18.59;68.52;97953.03;5362856;26;20000;-68
2024/04/13 06:10:07;;;;;;;12.15;4.43;;;;;;;18.91;65.74;97952.41;5352053;26;20097;-67
2024/04/13 06:12:33;;;;;;;10.13;4.90;;;;;;;18.71;67.63;97958.25;5375489;26;20392;-68
2024/04/13 06:14:59;;;;;;;10.25;4.50;;;;;;;18.32;65.19;97960.81;5363566;26;20078;-67
2024/04/13 06:17:24;;;;;;;9.70;4.50;;;;;;;18.70;64.83;97951.09;5356009;26;20015;-67
2024/04/13 06:19:50;;;;;;;7.15;5.22;;;;;;;19.72;64.91;97947.38;5390029;26;20442;-68
2024/04/13 06:22:20;;;;;;;6.13;5.07;;;;;;;20.54;60.81;97951.22;5331404;26;20349;-68
2024/04/13 06:24:46;;;;;;;14.50;6.82;;;;;;;19.45;64.82;97946.97;5368481;26;20746;-67
2024/04/13 06:27:12;;;;;;;9.93;5.60;;;;;;;19.36;66.12;97952.13;5354453;26;20000;-68
2024/04/13 06:29:37;;;;;;;12.05;5.43;;;;;;;19.58;62.81;97950.16;5376439;26;20002;-68
2024/04/13 06:32:03;;;;;;;9.88;5.32;;;;;;;19.77;62.37;97949.78;5357772;26;20073;-66
2024/04/13 06:34:28;;;;;;;8.02;5.28;;;;;;;19.92;63.16;97935.88;5372002;26;20000;-68
2024/04/13 06:36:54;;;;;;;9.82;5.10;;;;;;;20.65;60.11;97935.31;5366548;26;20011;-69
2024/04/13 06:39:19;;;;;;;7.32;5.03;;;;;;;20.81;58.97;97943.19;5364404;26;20442;-70
2024/04/13 06:41:45;;;;;;;6.88;4.70;;;;;;;22.23;55.70;97941.78;5397613;26;19999;-69
2024/04/13 06:44:10;;;;;;;7.10;4.75;;;;;;;22.35;53.53;97944.09;5358146;26;19999;-69
2024/04/13 06:46:36;;;;;;;10.00;5.70;;;;;;;21.46;53.36;97943.63;5375715;26;20000;-70
2024/04/13 06:49:01;;;;;;;10.48;5.25;;;;;;;21.87;53.39;97947.69;5363465;26;20046;-66
2024/04/13 06:51:27;;;;;;;15.38;5.75;;;;;;;20.96;60.01;97935.59;5357345;26;20411;-68
2024/04/13 06:53:53;;;;;;;12.25;5.07;;;;;;;21.58;57.21;97929.22;5358892;26;20011;-68
2024/04/13 06:56:19;;;;;;;8.20;4.93;;;;;;;;;;5376140;26;20813;-68
2024/04/13 06:58:45;;;;;;;12.50;5.85;;;;;;;21.52;56.00;97938.44;5369986;26;20011;-70
2024/04/13 07:01:11;;;;;;;8.55;5.25;;;;;;;21.82;55.25;97942.56;5355601;26;19996;-69
2024/04/13 07:03:36;;;;;;;7.45;5.35;;;;;;;22.00;54.13;97945.97;5361482;26;20062;-68
2024/04/13 07:06:05;;;;;;;16.92;5.28;;;;;;;21.31;57.98;97936.56;5357567;26;20043;-69
2024/04/13 07:08:30;;;;;;;10.45;5.60;;;;;;;22.18;56.00;97936.66;5363732;26;20249;-69
2024/04/13 07:10:56;;;;;;;11.60;5.65;;;;;;;22.68;53.71;97934.13;5361523;26;20019;-69
2024/04/13 07:13:22;;;;;;;8.65;5.40;;;;;;;22.52;57.69;97926.31;5353686;26;20044;-69
2024/04/13 07:15:49;;;;;;;10.10;5.75;;;;;;;20.43;68.03;97915.88;5362678;26;20004;-68
2024/04/13 07:18:15;;;;;;;11.43;5.75;;;;;;;19.27;74.53;97910.84;5338995;26;19996;-70
2024/04/13 07:20:41;;;;;;;11.93;5.85;;;;;;;19.10;73.08;97907.63;5362560;26;20001;-69
2024/04/13 07:23:07;;;;;;;13.07;6.65;;;;;;;19.20;79.95;97902.50;5325779;26;20159;-69
2024/04/13 07:25:32;;;;;;;12.45;7.43;;;;;;;18.42;91.53;97903.81;5361456;26;20000;-67
2024/04/13 07:27:57;;;;;;;12.57;6.93;;;;;;;18.40;90.68;97900.63;5331329;26;20076;-67
2024/04/13 07:30:23;;;;;;;12.63;7.32;;;;;;;19.76;77.85;97909.25;5360727;26;20038;-71
2024/04/13 07:32:48;;;;;;;9.18;6.93;;;;;;;20.25;78.53;97909.56;5322622;26;20454;-69
2024/04/13 07:35:14;;;;;;;13.55;7.03;;;;;;;23.08;60.63;97914.88;5351916;26;20023;-69
2024/04/13 07:37:39;;;;;;;9.57;5.88;;;;;;;23.81;56.33;97914.56;5362193;26;20038;-70
2024/04/13 07:40:05;;;;;;;10.65;7.07;;;;;;;25.67;46.72;97921.16;5353504;26;20010;-69
2024/04/13 07:42:30;;;;;;;15.38;6.47;;;;;;;24.65;48.76;97912.63;5361819;26;20439;-70
2024/04/13 07:44:56;;;;;;;9.70;5.60;;;;;;;24.92;48.67;97912.47;5347491;26;19997;-70
2024/04/13 07:47:21;;;;;;;12.15;6.63;;;;;;;24.73;47.20;97914.03;5367924;26;20206;-68
2024/04/13 07:49:47;;;;;;;11.18;6.47;;;;;;;24.55;48.98;97906.00;5374631;26;20011;-69
2024/04/13 07:52:12;;;;;;;11.90;6.40;;;;;;;24.77;47.95;97914.75;5383069;26;20073;-69
2024/04/13 07:54:37;;;;;;;12.43;6.05;;;;;;;25.70;46.49;97914.66;5332405;26;20000;-70
2024/04/13 07:57:03;;;;;;;11.70;6.05;;;;;;;24.67;47.24;97915.78;5357380;26;20081;-68
2024/04/13 07:59:29;;;;;;;10.50;6.20;;;;;;;26.39;44.38;97929.78;5346416;26;20015;-68
2024/04/13 08:01:54;;;;;;;8.30;5.57;;;;;;;28.05;40.06;97926.34;5333235;26;20015;-68
2024/04/13 08:04:19;;;;;;;12.10;5.55;;;;;;;27.42;39.01;97936.44;5354765;26;20015;-68
2024/04/13 08:06:45;;;;;;;7.80;5.38;;;;;;;25.55;41.99;97922.66;5360939;26;19999;-69
2024/04/13 08:09:10;;;;;;;12.70;5.95;;;;;;;24.96;44.62;97927.16;5355441;26;20010;-69
2024/04/13 08:11:36;;;;;;;10.02;5.70;;;;;;;24.23;49.58;97912.22;5369954;26;20430;-69
2024/04/13 08:14:02;;;;;;;14.32;6.03;;;;;;;26.29;43.68;97915.59;5358852;26;20007;-66
2024/04/13 08:16:27;;;;;;;11.95;6.78;;;;;;;23.75;47.98;97899.44;5328310;26;20064;-69
2024/04/13 08:18:53;;;;;;;11.70;6.57;;;;;;;23.49;50.06;97899.09;5329793;26;20000;-70
2024/04/13 08:21:18;;;;;;;9.23;6.40;;;;;;;25.50;46.48;97903.53;5353270;26;20015;-69
2024/04/13 08:23:44;;;;;;;14.93;6.45;;;;;;;25.71;45.67;97905.03;5361752;26;20095;-69
2024/04/13 08:26:09;;;;;;;10.43;6.07;;;;;;;26.83;42.46;97911.28;5351693;26;19996;-69
2024/04/13 08:28:35;;;;;;;15.15;6.47;;;;;;;24.61;46.11;97911.91;5361295;26;20494;-70
2024/04/13 08:31:06;;;;;;;13.77;6.45;;;;;;;24.72;45.78;97912.47;5359369;26;20008;-68
2024/04/13 08:33:32;;;;;;;10.80;6.40;;;;;;;26.18;44.70;97901.06;5360063;26;20015;-70
2024/04/13 08:36:04;;;;;;;12.65;6.15;;;;;;;27.96;39.78;97920.63;5360585;26;20000;-69
2024/04/13 08:38:31;;;;;;;14.02;6.70;;;;;;;27.44;40.01;97917.06;5359964;26;20534;-70
2024/04/13 08:41:37;;;;;;;16.20;6.70;;;;;;;26.54;41.11;97914.06;5351015;26;20070;-69
2024/04/13 08:44:02;;;;;;;10.43;6.47;;;;;;;26.19;42.50;97905.41;5217617;27;20018;-67
2024/04/13 08:46:31;;;;;;;9.30;5.22;;;;;;;27.04;41.29;97909.03;5237008;27;20465;-69
2024/04/13 08:48:56;;;;;;;16.30;7.45;;;;;;;28.56;37.89;97912.09;5268872;26;19997;-69
2024/04/13 08:51:22;;;;;;;9.65;6.25;;;;;;;25.68;42.03;97907.94;5368133;26;20040;-69
2024/04/13 08:53:49;;;;;;;13.27;6.57;;;;;;;27.14;40.95;97907.16;5333112;26;20010;-70
2024/04/13 08:56:17;;;;;;;12.68;6.22;;;;;;;27.98;37.95;97906.88;5336932;26;20007;-69
2024/04/13 08:58:45;;;;;;;16.48;6.05;;;;;;;27.48;38.15;97912.13;5360475;26;20077;-69
2024/04/13 09:01:13;;;;;;;9.35;5.45;;;;;;;27.41;38.14;97904.69;5341556;26;20051;-70
2024/04/13 09:03:39;;;;;;;13.37;7.17;;;;;;;25.13;42.52;97899.19;5360188;26;20040;-70
2024/04/13 09:06:04;;;;;;;14.55;7.63;;;;;;;24.21;44.99;97886.66;5349181;26;20138;-69
2024/04/13 09:08:32;;;;;;;16.13;7.75;;;;;;;22.32;49.17;97877.94;5361089;26;20595;-70
2024/04/13 09:10:59;;;;;;;14.40;7.75;;;;;;;21.39;54.29;97874.78;5360928;26;20000;-68
2024/04/13 09:13:25;;;;;;;18.77;7.75;;;;;;;22.38;52.31;97879.03;5363762;26;19995;-69
2024/04/13 09:15:50;;;;;;;13.32;7.10;;;;;;;23.79;49.93;97878.59;5365143;26;20066;-69
2024/04/13 09:18:16;;;;;;;14.10;7.05;;;;;;;25.24;45.25;97882.91;5336359;26;20001;-70
2024/04/13 09:20:42;;;;;;;15.35;7.45;;;;;;;27.48;43.43;97886.81;5358087;26;20409;-69
2024/04/13 09:23:08;;;;;;;17.90;8.75;;;;;;;27.62;42.00;97891.16;5320145;26;20004;-70
2024/04/13 09:25:34;;;;;;;13.18;8.05;;;;;;;27.26;42.72;97886.66;5371399;26;20046;-68
2024/04/13 09:28:03;;;;;;;9.88;7.57;;;;;;;26.65;42.95;97875.28;5356378;26;20000;-68
2024/04/13 09:30:29;;;;;;;13.55;8.13;;;;;;;26.87;44.16;97878.22;5368340;26;20015;-68
2024/04/13 09:33:10;;;;;;;13.07;7.72;;;;;;;27.04;43.04;97878.91;5378272;26;20000;-68
2024/04/13 09:35:35;;;;;;;10.90;6.85;;;;;;;27.00;43.35;97875.41;5358990;26;20047;-68
2024/04/13 09:38:01;;;;;;;12.60;7.97;;;;;;;26.06;44.96;97866.06;5357932;26;20015;-66
2024/04/13 09:40:28;;;;;;;19.23;9.57;;;;;;;26.51;44.35;97870.03;5354286;26;20000;-68
2024/04/13 09:42:54;;;;;;;22.95;9.95;;;;;;;26.10;45.11;97866.75;5358325;26;20036;-67
2024/04/13 09:45:19;;;;;;;19.58;8.52;;;;;;;26.65;44.86;97866.03;5365888;26;20427;-67
2024/04/13 09:47:46;;;;;;;11.07;7.95;;;;;;;26.42;44.20;97865.06;5357241;26;20000;-68
2024/04/13 09:50:12;;;;;;;14.60;8.80;;;;;;;25.24;47.12;97863.28;5329160;26;20734;-68
2024/04/13 09:52:37;;;;;;;23.58;10.82;;;;;;;24.86;49.07;97855.34;5369014;26;20486;-69
2024/04/13 09:55:04;;;;;;;17.17;8.80;;;;;;;25.05;48.59;97852.91;5378592;26;20712;-66
2024/04/13 09:57:29;;;;;;;10.95;8.07;;;;;;;25.54;47.45;97847.34;5390142;26;19989;-68
2024/04/13 09:59:55;;;;;;;20.05;9.60;;;;;;;25.78;47.49;97849.97;5357529;26;20032;-69
2024/04/13 10:02:21;;;;;;;14.07;8.20;;;;;;;26.28;45.61;97845.81;5350454;26;20012;-68
2024/04/13 10:04:47;;;;;;;14.90;8.98;;;;;;;25.52;47.36;97844.22;5359874;26;20040;-69
2024/04/13 10:07:14;;;;;;;16.52;10.73;;;;;;;24.74;49.61;97833.59;5365499;26;20023;-69
2024/04/13 10:09:42;;;;;;;11.25;9.15;;;;;;;24.31;50.80;97829.69;5387935;26;20029;-68
2024/04/13 10:12:20;;;;;;;13.88;8.45;;;;;;;24.57;51.33;97829.97;5355305;26;20640;-67
2024/04/13 10:14:47;;;;;;;12.48;9.27;;;;;;;25.31;49.15;97825.91;5359262;26;20510;-67
2024/04/13 10:17:14;;;;;;;22.60;10.55;;;;;;;25.23;49.35;97821.66;5372774;26;20077;-67
2024/04/13 10:19:44;;;;;;;31.05;11.13;;;;;;;25.03;50.05;97819.72;5393110;26;20013;-69
2024/04/13 10:22:09;;;;;;;19.55;10.25;;;;;;;25.40;50.44;97816.88;5382958;26;19999;-69
2024/04/13 10:24:35;;;;;;;15.52;9.43;;;;;;;25.30;49.43;97815.91;5359548;26;20086;-69
2024/04/13 10:27:10;;;;;;;11.45;8.80;;;;;;;25.55;49.24;97813.25;5360494;26;20004;-67
2024/04/13 10:29:40;;;;;;;16.60;9.48;;;;;;;25.85;46.36;97811.25;5358398;26;19997;-68
2024/04/13 10:32:16;;;;;;;16.00;8.90;;;;;;;25.72;47.24;97797.19;5351178;26;20783;-69
2024/04/13 10:34:42;;;;;;;13.82;10.13;;;;;;;26.09;46.22;97797.81;5328281;26;20077;-69
2024/04/13 10:37:32;;;;;;;21.63;10.20;;;;;;;26.18;44.61;97804.78;5318842;26;20015;-68
2024/04/13 10:39:59;;;;;;;11.80;8.73;;;;;;;25.94;44.48;97794.59;5389851;26;20106;-68
2024/04/13 10:42:41;;;;;;;18.17;10.98;;;;;;;24.90;50.52;97779.59;5364354;26;20386;-69
2024/04/13 10:45:18;;;;;;;20.73;11.48;;;;;;;24.45;50.81;97780.97;5341593;26;20015;-69
2024/04/13 10:47:44;;;;;;;22.63;11.30;;;;;;;24.99;51.48;97774.16;5378895;26;20036;-67
2024/04/13 10:50:11;;;;;;;13.10;8.75;;;;;;;24.83;50.03;97772.16;5343203;26;20307;-68
2024/04/13 10:52:36;;;;;;;15.45;9.20;;;;;;;25.56;49.71;97769.94;5372087;26;20001;-69
2024/04/13 10:55:02;;;;;;;13.77;9.00;;;;;;;25.56;49.87;97769.94;5358537;26;19996;-64
2024/04/13 10:57:28;;;;;;;14.32;9.00;;;;;;;25.90;48.12;97774.25;5361069;26;20011;-67
2024/04/13 10:59:54;;;;;;;16.17;9.27;;;;;;;25.28;48.32;97777.09;5376211;26;20000;-67
2024/04/13 11:02:19;;;;;;;16.10;9.68;;;;;;;24.54;50.68;97766.41;5359515;26;20014;-67
2024/04/13 11:04:45;;;;;;;21.73;12.48;;;;;;;24.39;52.47;97758.31;5362048;26;20000;-69
2024/04/13 11:07:13;;;;;;;22.73;12.40;;;;;;;22.58;57.13;97755.56;5352161;26;20001;-68
2024/04/13 11:09:41;;;;;;;19.77;12.15;;;;;;;23.11;57.33;97759.56;5329974;26;20426;-68
2024/04/13 11:12:08;;;;;;;24.42;14.07;;;;;;;22.44;58.88;97754.56;5337799;26;20010;-68
2024/04/13 11:14:33;;;;;;;20.25;11.55;;;;;;;22.43;63.17;97741.03;5362827;26;20000;-69
2024/04/13 11:16:59;;;;;;;17.17;11.82;;;;;;;22.81;59.47;97750.03;5376918;26;20987;-67
2024/04/13 11:19:25;;;;;;;25.40;13.38;;;;;;;22.44;63.76;97737.81;5356336;26;20000;-67
2024/04/13 11:21:51;;;;;;;25.35;13.32;;;;;;;22.23;64.64;97738.88;5378456;26;19996;-66
2024/04/13 11:24:17;;;;;;;17.95;11.75;;;;;;;21.96;67.95;97739.63;5325963;26;20015;-67